Hauptseite
METAR-TAF:

METAR-TAF

Flughäfen :

Robin Hood Airport Doncaster Sheffield

Doncaster, England

Breite: 53-29N, Länge: 001-00W, Höhe: 17 m

Beobachtung

Neuester Wetterbericht von vor 12 Minuten, um 13:20 UTC
Wind 6 kt aus unterschiedlichen Richtungen
Temperatur 19°C
Luftfeuchtigkeit 46%
Luftdruck 1015 hPa
Sichtweite 10 km oder mehr
Aufgelockert bewölkt in der Höhe von 4700 ft

METAR: EGCN 231320Z VRB06KT 9999 SCT047 19/07 Q1015

Zeit: 14:32 (13:32 UTC)

Prognose

Neuester Wetterbericht von vor 2 Stunden und 39 Minuten, um 10:53 UTC
Gültige Prognose vom 23 um 12 UTC bis 24 um 12 UTC
Wind 9 kt aus West
Sichtweite 10 km oder mehr
Aufgelockert bewölkt in der Höhe von 4500 ft
Wahrscheinlichkeit 30% :
Zeitweise
vom 24 um 03 UTC bis 24 um 06 UTC
Durchbrochene Bewölkung in der Höhe von 1400 ft

TAF: EGCN 231053Z 2312/2412 27009KT 9999 SCT045 PROB30 TEMPO 2403/2406 BKN014

Wetterbeobachtungen und Prognosen von mehr als 4000 Flughäfen (METAR und TAF Bericht).

Die verfügbaren Stationen werden durch gelbe und rote Markierungen auf der Karte dargestellt.

Führen Sie die Maus auf sie, um den Namen der Station zu sehen.

Darauf klicken, um die Beobachtung von Wetterbeobachtungen und Prognosen zu sehen.

Um die Karte zu ändern : klicken Sie auf den grünen Tasten mit einem schwarzen Kreuz Zum Vergrößern, auf den grünen Button mit einem Gedankenstrich zu verkleinern, oder auf die grünen Pfeile für benachbarte Karten.


METAR-TAF: